Time;durP1;ratioP1;P1;durP2;ratioP2;P2;SDS_P1;SDS_P2;PMS_P1;PMS_P2;Temp;Humidity;BMP_temperature;BMP_pressure;BME280_temperature;BME280_humidity;BME280_pressure;Samples;Min_cycle;Max_cycle;Signal;HPM_P1;HPM_P2
2021/08/30 00:00:25;;;;;;;7.20;5.20;;;;;;;15.71;69.36;98533.19;233637;1202;138983;-59
2021/08/30 00:05:40;;;;;;;7.20;6.10;;;;;;;15.72;69.38;98532.88;233448;1202;138612;-62
2021/08/30 00:10:43;;;;;;;7.50;5.70;;;;;;;15.74;69.62;98527.75;233698;1202;139762;-61
2021/08/30 00:15:46;;;;;;;9.50;5.60;;;;;;;15.72;69.47;98530.39;233557;1200;139809;-61
2021/08/30 00:20:50;;;;;;;7.50;5.30;;;;;;;15.70;69.59;98526.16;233697;1202;138016;-62
2021/08/30 00:25:53;;;;;;;9.00;5.20;;;;;;;15.67;69.51;98522.43;233630;1198;139229;-64
2021/08/30 00:30:56;;;;;;;6.20;4.90;;;;;;;15.64;69.67;98515.70;233578;1202;138315;-64
2021/08/30 00:35:59;;;;;;;8.30;5.30;;;;;;;15.63;69.73;98511.52;233568;1203;137720;-62
2021/08/30 00:41:03;;;;;;;8.70;5.90;;;;;;;15.60;69.74;98507.67;233848;1201;138769;-61
2021/08/30 00:46:06;;;;;;;7.40;5.00;;;;;;;15.54;69.78;98502.38;233755;1202;137881;-62
2021/08/30 00:51:09;;;;;;;5.60;4.50;;;;;;;15.47;69.56;98501.18;233704;1202;139291;-66
2021/08/30 00:56:13;;;;;;;6.30;4.70;;;;;;;15.47;69.84;98510.27;233656;1202;138414;-62
2021/08/30 01:01:16;;;;;;;6.60;5.00;;;;;;;15.48;69.94;98512.41;233407;1203;138278;-63
2021/08/30 01:06:42;;;;;;;6.50;5.80;;;;;;;15.47;69.75;98517.77;233484;1202;139225;-64
2021/08/30 01:11:54;;;;;;;7.40;5.30;;;;;;;15.43;69.68;98520.73;233740;1202;138936;-63
2021/08/30 01:16:58;;;;;;;9.40;5.00;;;;;;;15.37;69.77;98518.71;233665;1203;138569;-63
2021/08/30 01:22:05;;;;;;;6.80;5.40;;;;;;;15.32;69.80;98524.83;233367;1202;139173;-61
2021/08/30 01:27:09;;;;;;;6.50;5.50;;;;;;;15.35;70.16;98538.90;233368;1202;137907;-60
2021/08/30 01:32:29;;;;;;;8.60;5.30;;;;;;;15.34;69.98;98538.79;233567;1202;138182;-62
2021/08/30 01:37:34;;;;;;;7.10;4.50;;;;;;;15.29;70.08;98534.76;233560;1203;138135;-63
2021/08/30 01:42:41;;;;;;;6.80;4.60;;;;;;;15.27;70.14;98530.91;233448;1202;138794;-62
2021/08/30 01:47:44;;;;;;;6.00;4.40;;;;;;;15.26;70.15;98523.13;233624;1201;138435;-61
2021/08/30 01:52:50;;;;;;;6.10;4.50;;;;;;;15.26;70.30;98525.44;233942;1202;137797;-63
2021/08/30 02:03:01;;;;;;;8.30;4.60;;;;;;;15.20;70.45;98527.20;233396;1202;139043;-62
2021/08/30 02:08:07;;;;;;;6.90;4.30;;;;;;;15.16;70.32;98526.34;233361;1203;140961;-61
2021/08/30 02:13:15;;;;;;;7.60;4.70;;;;;;;15.14;70.67;98525.42;233728;1202;138987;-60
2021/08/30 02:18:27;;;;;;;5.60;4.80;;;;;;;15.14;70.69;98521.85;233547;1203;139546;-59
2021/08/30 02:23:38;;;;;;;6.20;4.90;;;;;;;15.13;70.55;98526.98;233480;1203;138751;-60
2021/08/30 02:28:44;;;;;;;6.10;4.10;;;;;;;15.09;70.70;98515.71;233747;1202;138502;-60
2021/08/30 02:33:49;;;;;;;4.70;4.10;;;;;;;15.02;70.55;98514.14;233289;1203;138646;-60
2021/08/30 02:38:56;;;;;;;6.90;4.20;;;;;;;15.02;70.81;98509.17;233453;1203;139178;-59
2021/08/30 02:44:00;;;;;;;7.50;4.80;;;;;;;15.04;70.92;98510.42;233495;1202;138462;-58
2021/08/30 02:49:04;;;;;;;7.90;4.40;;;;;;;15.03;70.90;98509.63;233218;1202;138478;-60
2021/08/30 02:54:09;;;;;;;9.10;4.00;;;;;;;14.99;70.94;98508.38;233268;1202;138410;-61
2021/08/30 02:59:13;;;;;;;5.10;4.00;;;;;;;14.99;70.93;98507.52;233573;1203;139409;-60
2021/08/30 03:04:16;;;;;;;7.70;4.70;;;;;;;14.99;70.94;98504.63;233681;1203;138164;-60
2021/08/30 03:09:19;;;;;;;6.10;4.40;;;;;;;15.02;71.23;98509.02;233589;1202;138085;-61
2021/08/30 03:14:25;;;;;;;5.60;5.00;;;;;;;15.04;71.35;98514.83;233479;1202;138938;-61
2021/08/30 03:19:30;;;;;;;7.00;4.00;;;;;;;15.05;71.30;98507.14;233611;1202;139966;-61
2021/08/30 03:24:33;;;;;;;4.60;4.00;;;;;;;15.06;71.34;98502.92;233677;1202;140159;-63
2021/08/30 03:29:38;;;;;;;128.30;89.20;;;;;;;15.07;71.36;98493.84;233686;1202;139444;-64
2021/08/30 03:34:42;;;;;;;8.00;6.10;;;;;;;15.15;71.69;98486.18;233694;1202;139382;-63
2021/08/30 03:39:45;;;;;;;7.80;5.00;;;;;;;15.22;71.48;98484.35;233768;1202;137679;-64
2021/08/30 03:44:49;;;;;;;52.00;40.00;;;;;;;15.25;71.57;98482.09;233449;1202;137933;-60
2021/08/30 03:49:54;;;;;;;6.70;5.40;;;;;;;15.33;72.00;98477.25;233465;1202;139188;-61
2021/08/30 03:54:58;;;;;;;8.40;4.70;;;;;;;15.39;71.50;98473.84;233812;1201;138262;-62
2021/08/30 04:00:05;;;;;;;8.70;5.50;;;;;;;15.38;71.47;98472.84;234049;1201;138249;-61
2021/08/30 04:05:10;;;;;;;8.00;5.50;;;;;;;15.33;71.30;98473.27;234079;1200;138538;-61
2021/08/30 04:10:13;;;;;;;6.90;5.60;;;;;;;15.30;71.29;98484.32;233808;1201;138218;-62
2021/08/30 04:15:16;;;;;;;6.80;5.60;;;;;;;15.26;71.37;98494.34;232737;1202;139218;-64
2021/08/30 04:20:22;;;;;;;;;;;;;;;15.22;71.41;98501.31;233521;1201;138799;-65
2021/08/30 04:25:25;;;;;;;13.60;9.30;;;;;;;15.16;71.42;98507.89;233725;1201;124673;-67
2021/08/30 04:30:28;;;;;;;8.20;6.70;;;;;;;15.14;71.43;98514.68;233810;1201;138344;-65
2021/08/30 04:35:32;;;;;;;5.70;5.10;;;;;;;15.11;71.74;98514.83;233697;1201;138239;-63
2021/08/30 04:40:37;;;;;;;6.80;5.10;;;;;;;15.07;71.66;98518.05;233901;1201;139964;-65
2021/08/30 04:45:41;;;;;;;9.20;5.90;;;;;;;15.06;71.60;98510.79;233965;1200;138955;-63
2021/08/30 04:50:44;;;;;;;6.80;5.80;;;;;;;15.06;71.65;98505.07;233870;1202;142240;-63
2021/08/30 04:55:48;;;;;;;7.90;6.30;;;;;;;15.05;71.78;98500.98;233743;1201;138289;-63
2021/08/30 05:00:51;;;;;;;6.20;5.20;;;;;;;15.06;71.78;98503.48;233804;1202;138825;-63
2021/08/30 05:05:54;;;;;;;7.40;4.80;;;;;;;15.07;71.71;98500.83;233654;1200;141441;-64
2021/08/30 05:10:57;;;;;;;6.00;5.40;;;;;;;15.09;71.53;98499.63;234024;1202;138580;-65
2021/08/30 05:16:04;;;;;;;5.90;4.80;;;;;;;15.09;71.70;98499.92;233260;1202;138188;-64
2021/08/30 05:21:11;;;;;;;5.90;4.80;;;;;;;15.09;71.59;98500.63;233759;1201;138066;-65
2021/08/30 05:26:17;;;;;;;5.10;4.10;;;;;;;15.06;71.65;98493.98;233863;1200;139101;-66
2021/08/30 05:31:20;;;;;;;5.90;3.80;;;;;;;15.05;71.65;98498.39;233854;1200;139432;-66
2021/08/30 05:36:24;;;;;;;5.70;3.50;;;;;;;15.04;71.66;98494.91;233300;1201;138305;-63
2021/08/30 05:41:27;;;;;;;4.10;3.50;;;;;;;15.05;71.56;98489.61;233840;1201;138668;-64
2021/08/30 05:46:30;;;;;;;3.80;3.30;;;;;;;15.04;71.54;98490.02;234018;1201;138115;-66
2021/08/30 05:51:33;;;;;;;5.00;3.00;;;;;;;15.03;71.40;98488.33;233851;1201;138589;-63
2021/08/30 05:56:36;;;;;;;5.60;3.80;;;;;;;15.01;71.26;98481.95;233750;1201;138965;-65
2021/08/30 06:01:41;;;;;;;4.80;3.40;;;;;;;14.99;71.27;98481.77;233793;1200;138641;-63
2021/08/30 06:06:44;;;;;;;4.70;3.40;;;;;;;14.93;71.15;98481.77;233863;1201;139123;-62
2021/08/30 06:11:50;;;;;;;4.30;3.70;;;;;;;14.89;71.17;98483.13;233933;1201;138871;-63
2021/08/30 06:16:53;;;;;;;6.40;3.90;;;;;;;14.85;71.10;98485.35;233922;1201;138424;-63
2021/08/30 06:21:57;;;;;;;7.60;5.40;;;;;;;14.81;71.12;98480.09;233751;1201;138959;-62
2021/08/30 06:27:00;;;;;;;5.00;4.50;;;;;;;14.83;71.36;98472.23;233857;1202;138759;-64
2021/08/30 06:32:04;;;;;;;5.90;5.30;;;;;;;14.87;71.32;98474.27;233930;1202;138383;-64
2021/08/30 06:37:07;;;;;;;5.70;5.10;;;;;;;14.87;71.27;98473.31;233519;1201;138018;-63
2021/08/30 06:42:10;;;;;;;5.40;4.70;;;;;;;14.86;71.38;98473.64;233682;1202;138984;-62
2021/08/30 06:47:13;;;;;;;5.20;4.70;;;;;;;14.85;71.39;98477.59;233618;1201;138955;-63
2021/08/30 06:52:17;;;;;;;7.20;5.10;;;;;;;14.88;71.58;98475.96;233674;1201;138838;-67
2021/08/30 06:57:20;;;;;;;7.20;6.10;;;;;;;14.90;71.58;98469.31;233681;1202;138641;-62
2021/08/30 07:02:24;;;;;;;8.20;6.60;;;;;;;14.95;71.83;98469.81;233667;1201;138106;-64
2021/08/30 07:07:28;;;;;;;8.50;5.20;;;;;;;15.01;71.93;98466.91;233570;1201;140630;-64
2021/08/30 07:12:31;;;;;;;5.90;4.90;;;;;;;15.04;71.94;98461.48;233598;1201;139793;-64
2021/08/30 07:17:34;;;;;;;8.40;5.50;;;;;;;15.10;71.97;98465.08;233557;1201;138925;-64
2021/08/30 07:22:37;;;;;;;6.50;5.70;;;;;;;15.14;71.92;98467.73;233409;1201;138439;-63
2021/08/30 07:27:40;;;;;;;7.00;6.20;;;;;;;15.18;71.89;98472.15;233856;1201;139606;-63
2021/08/30 07:32:44;;;;;;;6.30;5.60;;;;;;;15.16;72.00;98475.74;233793;1200;138260;-62
2021/08/30 07:37:47;;;;;;;6.10;5.50;;;;;;;15.15;72.03;98475.70;233646;1202;139237;-64
2021/08/30 07:42:50;;;;;;;6.60;5.80;;;;;;;15.20;72.13;98482.05;233064;1201;140462;-63
2021/08/30 07:47:54;;;;;;;6.80;6.00;;;;;;;15.25;72.26;98484.21;233837;1201;139577;-64
2021/08/30 07:52:57;;;;;;;8.20;6.60;;;;;;;15.28;72.20;98481.49;233901;1201;138822;-64
2021/08/30 07:58:05;;;;;;;306.80;215.60;;;;;;;15.28;72.17;98482.04;233619;1201;139271;-63
2021/08/30 08:03:11;;;;;;;7.40;5.50;;;;;;;15.30;72.01;98486.14;233600;1200;139824;-64
2021/08/30 08:08:14;;;;;;;10.40;5.40;;;;;;;15.28;71.95;98487.73;233856;1201;138374;-63
2021/08/30 08:13:17;;;;;;;6.80;5.30;;;;;;;15.25;72.04;98485.45;233233;1201;138478;-64
2021/08/30 08:18:20;;;;;;;5.10;4.60;;;;;;;15.23;72.12;98483.50;233691;1201;138345;-64
2021/08/30 08:23:23;;;;;;;4.50;3.90;;;;;;;15.20;71.92;98484.85;233231;1201;161748;-64
2021/08/30 08:28:26;;;;;;;3.80;3.20;;;;;;;15.17;72.14;98484.39;233902;1201;140980;-62
2021/08/30 08:33:29;;;;;;;3.90;3.40;;;;;;;15.19;72.18;98490.34;233736;1201;140769;-63
2021/08/30 08:38:32;;;;;;;4.40;3.70;;;;;;;15.19;72.15;98491.25;233451;1201;138312;-62
2021/08/30 08:43:35;;;;;;;4.30;3.20;;;;;;;15.16;71.97;98489.55;233450;1201;139573;-62
2021/08/30 08:48:39;;;;;;;4.70;3.50;;;;;;;15.14;72.16;98489.33;233825;1201;138484;-63
2021/08/30 08:53:43;;;;;;;4.00;3.20;;;;;;;15.13;71.94;98491.58;233860;1201;139249;-63
2021/08/30 08:58:46;;;;;;;3.70;3.30;;;;;;;15.14;72.15;98492.52;233857;1201;138814;-63
2021/08/30 09:03:51;;;;;;;4.80;4.30;;;;;;;15.15;72.06;98494.80;233759;1201;138435;-62
2021/08/30 09:09:17;;;;;;;8.00;4.40;;;;;;;15.19;72.34;98494.95;233697;1201;138027;-62
2021/08/30 09:14:22;;;;;;;6.50;4.00;;;;;;;15.22;72.39;98493.96;233754;1201;139254;-64
2021/08/30 09:19:25;;;;;;;4.10;3.70;;;;;;;15.28;72.64;98487.00;233662;1201;139330;-63
2021/08/30 09:24:29;;;;;;;5.50;4.30;;;;;;;15.36;72.66;98489.88;233235;1201;138702;-64
2021/08/30 09:29:38;;;;;;;4.80;4.30;;;;;;;15.43;72.68;98490.45;233821;1201;138284;-66
2021/08/30 09:34:45;;;;;;;6.50;4.90;;;;;;;15.46;72.56;98493.05;233566;1201;138511;-64
2021/08/30 09:39:50;;;;;;;4.80;4.00;;;;;;;15.48;72.62;98496.23;233749;1201;138268;-63
2021/08/30 09:44:56;;;;;;;6.50;4.50;;;;;;;15.56;72.82;98500.55;233635;1201;138949;-64
2021/08/30 09:49:59;;;;;;;5.00;4.40;;;;;;;15.63;72.54;98494.20;233541;1200;139212;-64
2021/08/30 09:55:02;;;;;;;5.20;4.70;;;;;;;15.64;72.61;98497.30;233815;1201;138647;-64
2021/08/30 10:00:06;;;;;;;5.80;4.70;;;;;;;15.68;72.87;98498.59;233807;1201;139004;-64
2021/08/30 10:05:10;;;;;;;4.90;4.40;;;;;;;15.71;72.92;98501.16;233951;1201;138517;-63
2021/08/30 10:10:14;;;;;;;7.80;5.10;;;;;;;15.77;72.71;98500.08;233741;1201;140256;-63
2021/08/30 10:15:19;;;;;;;6.90;5.30;;;;;;;15.86;72.78;98505.69;233726;1201;139342;-64
2021/08/30 10:20:26;;;;;;;7.20;6.00;;;;;;;15.95;72.76;98502.55;233468;1201;138395;-65
2021/08/30 10:25:31;;;;;;;6.40;5.60;;;;;;;16.00;72.67;98502.46;233838;1201;138689;-64
2021/08/30 10:30:36;;;;;;;8.80;5.60;;;;;;;16.02;72.39;98503.10;233654;1201;138923;-63
2021/08/30 10:35:39;;;;;;;5.70;4.80;;;;;;;16.02;72.58;98503.13;233561;1201;138986;-63
2021/08/30 10:40:49;;;;;;;7.80;7.00;;;;;;;16.05;72.67;98509.47;233918;1200;138637;-64
2021/08/30 10:45:57;;;;;;;7.00;6.20;;;;;;;16.07;72.52;98510.84;233833;1201;138113;-63
2021/08/30 10:51:15;;;;;;;167.50;125.30;;;;;;;16.09;72.53;98513.39;233622;1201;138968;-66
2021/08/30 10:56:25;;;;;;;19.10;14.20;;;;;;;16.10;72.31;98520.33;233743;1201;139230;-63
2021/08/30 11:01:27;;;;;;;8.00;5.80;;;;;;;16.08;72.28;98527.80;233838;1201;140288;-65
2021/08/30 11:06:36;;;;;;;6.60;6.00;;;;;;;16.06;72.06;98531.89;233873;1201;140874;-63
2021/08/30 11:11:39;;;;;;;8.30;6.70;;;;;;;16.07;72.17;98534.47;233345;1201;138066;-63
2021/08/30 11:16:56;;;;;;;9.30;6.60;;;;;;;16.04;72.08;98529.27;233565;1201;138161;-63
2021/08/30 11:22:00;;;;;;;6.80;6.00;;;;;;;15.98;72.01;98536.56;233789;1201;138583;-64
2021/08/30 11:27:17;;;;;;;6.90;6.20;;;;;;;15.91;71.70;98537.06;233639;1201;139407;-62
2021/08/30 11:32:22;;;;;;;9.00;7.20;;;;;;;15.91;72.16;98540.80;233712;1201;139692;-63
2021/08/30 11:37:28;;;;;;;9.50;8.00;;;;;;;15.88;72.02;98544.16;233595;1201;138535;-63
2021/08/30 11:42:33;;;;;;;8.90;8.00;;;;;;;15.84;72.07;98545.77;233311;1201;140342;-63
2021/08/30 11:47:38;;;;;;;9.90;7.70;;;;;;;15.80;72.10;98546.48;233747;1201;138659;-62
2021/08/30 11:52:41;;;;;;;8.10;7.20;;;;;;;15.74;71.88;98548.31;233675;1201;140309;-64
2021/08/30 11:58:00;;;;;;;8.90;8.00;;;;;;;15.71;72.13;98547.15;233637;1201;138994;-62
2021/08/30 12:03:14;;;;;;;9.80;8.70;;;;;;;15.69;72.03;98546.81;233579;1199;138328;-63
2021/08/30 12:08:21;;;;;;;12.40;8.80;;;;;;;15.66;72.30;98547.40;233498;1202;138527;-62
2021/08/30 12:18:29;;;;;;;4.40;3.90;;;;;;;15.64;72.27;98544.56;233611;1201;138949;-62
2021/08/30 12:23:36;;;;;;;6.30;5.10;;;;;;;15.64;72.19;98542.36;233759;1201;138588;-62
2021/08/30 12:28:45;;;;;;;19.60;12.20;;;;;;;15.63;72.27;98543.58;233749;1201;138437;-62
2021/08/30 12:33:48;;;;;;;7.80;5.40;;;;;;;15.63;72.32;98535.00;233813;1200;140639;-62
2021/08/30 12:38:51;;;;;;;5.50;4.80;;;;;;;15.62;72.46;98535.39;233590;1201;138482;-64
2021/08/30 12:43:54;;;;;;;4.50;3.90;;;;;;;15.64;72.52;98535.41;233152;1201;139342;-62
2021/08/30 12:48:59;;;;;;;6.50;4.80;;;;;;;15.66;72.38;98539.38;234127;1201;138485;-62
2021/08/30 12:54:03;;;;;;;6.70;4.70;;;;;;;15.65;72.49;98539.94;233965;1200;137250;-62
2021/08/30 12:59:06;;;;;;;6.50;4.90;;;;;;;15.66;72.65;98538.26;234339;1200;138327;-63
2021/08/30 13:04:09;;;;;;;8.10;6.70;;;;;;;15.66;72.67;98536.17;233956;1200;138433;-63
2021/08/30 13:09:12;;;;;;;5.40;3.80;;;;;;;15.60;72.56;98536.63;234080;1200;138643;-62
2021/08/30 13:14:15;;;;;;;5.60;4.50;;;;;;;15.65;72.59;98540.73;233101;1200;139047;-62
2021/08/30 13:19:18;;;;;;;8.70;4.90;;;;;;;15.71;73.01;98543.95;233331;1203;138613;-63
2021/08/30 13:24:21;;;;;;;8.50;5.80;;;;;;;15.75;72.96;98547.63;233818;1201;140034;-62
2021/08/30 13:29:25;;;;;;;6.00;4.20;;;;;;;15.75;72.89;98555.02;233794;1201;138507;-63
2021/08/30 13:34:28;;;;;;;5.30;4.10;;;;;;;15.76;72.79;98558.29;233841;1201;139158;-62
2021/08/30 13:39:31;;;;;;;6.40;4.20;;;;;;;15.81;72.91;98563.56;233665;1201;138616;-60
2021/08/30 13:44:34;;;;;;;9.00;5.60;;;;;;;15.86;73.01;98563.85;233665;1200;138184;-63
2021/08/30 13:49:37;;;;;;;7.40;4.60;;;;;;;15.89;73.14;98562.69;233913;1200;138732;-62
2021/08/30 13:54:40;;;;;;;5.30;4.50;;;;;;;15.88;72.93;98559.39;233825;1200;139521;-63
2021/08/30 13:59:47;;;;;;;5.40;4.20;;;;;;;15.95;73.02;98559.79;233701;1200;139711;-63
2021/08/30 14:04:50;;;;;;;5.50;4.70;;;;;;;16.03;73.41;98556.88;233856;1200;138978;-62
2021/08/30 14:09:53;;;;;;;4.70;4.20;;;;;;;16.15;73.29;98563.98;233789;1201;138865;-63
2021/08/30 14:14:56;;;;;;;6.60;4.50;;;;;;;16.23;73.32;98572.06;233831;1200;138540;-62
2021/08/30 14:20:00;;;;;;;5.00;4.10;;;;;;;16.21;72.93;98575.10;233697;1200;139056;-63
2021/08/30 14:25:03;;;;;;;3.60;3.20;;;;;;;16.18;72.81;98575.05;233896;1200;138812;-64
2021/08/30 14:30:07;;;;;;;3.90;3.30;;;;;;;16.17;72.41;98575.52;233836;1200;139007;-63
2021/08/30 14:35:12;;;;;;;4.70;3.70;;;;;;;16.14;72.36;98576.11;233850;1200;138357;-62
2021/08/30 14:40:15;;;;;;;4.60;3.80;;;;;;;16.09;72.52;98576.77;233745;1201;138549;-62
2021/08/30 14:45:19;;;;;;;4.30;3.40;;;;;;;16.05;72.21;98580.12;233742;1201;138982;-62
2021/08/30 14:50:22;;;;;;;5.20;3.50;;;;;;;16.03;72.48;98580.38;233807;1201;139572;-62
2021/08/30 14:55:26;;;;;;;4.70;3.60;;;;;;;16.06;72.38;98583.12;233723;1201;138822;-63
2021/08/30 15:00:29;;;;;;;8.00;4.80;;;;;;;16.07;72.24;98584.09;233698;1202;138590;-63
2021/08/30 15:05:32;;;;;;;3.80;3.30;;;;;;;16.03;72.16;98585.87;233806;1200;138337;-62
2021/08/30 15:10:35;;;;;;;4.40;3.60;;;;;;;16.00;72.04;98581.20;233867;1200;139048;-62
2021/08/30 15:15:38;;;;;;;6.80;5.40;;;;;;;15.97;72.17;98577.11;233747;1200;140353;-62
2021/08/30 15:20:43;;;;;;;6.50;3.70;;;;;;;16.00;72.20;98574.73;232935;1200;139145;-63
2021/08/30 15:25:50;;;;;;;5.30;3.70;;;;;;;16.03;72.24;98577.31;232601;1199;137746;-63
2021/08/30 15:30:57;;;;;;;5.50;4.30;;;;;;;16.04;72.13;98578.95;232117;1202;139175;-63
2021/08/30 15:36:01;;;;;;;6.10;4.10;;;;;;;16.05;72.28;98576.42;233824;1200;138708;-64
2021/08/30 15:41:04;;;;;;;202.10;122.30;;;;;;;16.08;72.35;98572.36;233960;1200;139279;-63
2021/08/30 15:46:07;;;;;;;8.70;6.10;;;;;;;16.14;72.48;98571.41;233799;1200;139675;-64
2021/08/30 15:51:11;;;;;;;10.60;5.70;;;;;;;16.18;72.30;98571.92;233743;1200;138294;-61
2021/08/30 15:56:14;;;;;;;10.00;5.40;;;;;;;16.19;72.28;98569.95;233742;1202;138725;-61
2021/08/30 16:01:20;;;;;;;10.00;6.90;;;;;;;16.18;72.43;98571.98;233730;1201;139065;-60
2021/08/30 16:06:24;;;;;;;6.20;5.20;;;;;;;16.21;72.58;98574.77;233824;1200;139111;-62
2021/08/30 16:11:28;;;;;;;10.00;6.90;;;;;;;16.23;72.35;98575.10;233518;1201;138564;-64
2021/08/30 16:16:32;;;;;;;11.40;7.10;;;;;;;16.27;72.70;98573.44;233961;1202;138837;-63
2021/08/30 16:21:36;;;;;;;11.10;8.90;;;;;;;16.28;72.60;98575.69;233842;1200;138439;-63
2021/08/30 16:26:39;;;;;;;9.70;8.70;;;;;;;16.27;72.44;98579.55;233768;1200;138830;-63
2021/08/30 16:31:42;;;;;;;10.20;8.60;;;;;;;16.24;72.24;98576.92;233869;1200;139217;-63
2021/08/30 16:36:45;;;;;;;10.30;8.80;;;;;;;16.23;72.26;98580.23;233572;1202;138957;-63
2021/08/30 16:41:48;;;;;;;134.30;96.10;;;;;;;16.24;72.44;98578.94;233548;1202;138779;-63
2021/08/30 16:46:52;;;;;;;12.80;10.70;;;;;;;16.23;72.41;98586.36;233854;1200;139249;-62
2021/08/30 16:51:55;;;;;;;9.90;7.80;;;;;;;16.14;71.83;98588.12;233926;1199;138487;-63
2021/08/30 16:56:58;;;;;;;11.20;8.20;;;;;;;16.07;72.02;98587.65;233768;1201;139090;-63
2021/08/30 17:02:02;;;;;;;11.60;7.80;;;;;;;16.06;71.96;98583.75;233632;1202;138960;-64
2021/08/30 17:07:05;;;;;;;10.20;7.70;;;;;;;16.02;71.86;98577.92;233758;1201;138579;-63
2021/08/30 17:12:09;;;;;;;10.40;7.30;;;;;;;15.95;71.71;98576.03;233725;1200;139711;-63
2021/08/30 17:17:13;;;;;;;8.80;6.90;;;;;;;15.88;71.54;98577.24;233874;1197;138390;-62
2021/08/30 17:22:16;;;;;;;8.10;6.30;;;;;;;15.91;72.14;98579.51;233772;1201;139411;-62
2021/08/30 17:27:19;;;;;;;10.70;6.80;;;;;;;15.99;72.07;98580.16;233477;1202;138929;-60
2021/08/30 17:32:30;;;;;;;9.10;7.10;;;;;;;16.03;72.02;98582.48;233886;1200;138884;-62
2021/08/30 17:37:33;;;;;;;11.10;7.00;;;;;;;16.06;71.88;98579.88;233825;1200;138462;-61
2021/08/30 17:42:40;;;;;;;11.00;7.40;;;;;;;16.10;72.07;98582.36;233547;1201;138596;-63
2021/08/30 17:47:44;;;;;;;8.20;6.60;;;;;;;16.12;71.91;98579.70;233305;1200;139299;-62
2021/08/30 17:52:47;;;;;;;90.60;64.30;;;;;;;16.14;71.75;98580.41;233882;1200;139230;-63
2021/08/30 17:57:50;;;;;;;13.60;9.90;;;;;;;16.04;71.38;98582.52;233755;1200;139026;-62
2021/08/30 18:02:57;;;;;;;11.90;9.50;;;;;;;15.90;71.46;98587.95;233689;1201;138789;-63
2021/08/30 18:08:00;;;;;;;10.50;8.70;;;;;;;15.79;71.40;98593.80;233845;1201;138178;-63
2021/08/30 18:13:05;;;;;;;14.80;9.10;;;;;;;15.72;71.42;98596.73;233765;1200;141160;-62
2021/08/30 18:18:08;;;;;;;80.80;64.20;;;;;;;15.68;71.61;98604.47;233570;1200;139327;-62
2021/08/30 18:23:11;;;;;;;16.00;10.80;;;;;;;15.66;71.77;98601.27;233816;1200;138673;-62
2021/08/30 18:28:17;;;;;;;15.30;12.20;;;;;;;15.65;72.06;98596.09;233813;1200;138844;-62
2021/08/30 18:33:20;;;;;;;15.80;11.40;;;;;;;15.62;71.86;98599.96;233690;1201;139148;-62
2021/08/30 18:38:23;;;;;;;15.60;10.90;;;;;;;15.60;71.88;98602.80;233764;1200;139186;-62
2021/08/30 18:43:27;;;;;;;14.50;11.60;;;;;;;15.56;72.00;98606.92;233829;1201;139860;-61
2021/08/30 18:48:33;;;;;;;15.70;12.40;;;;;;;15.53;71.86;98607.40;233879;1200;139017;-62
2021/08/30 18:53:37;;;;;;;17.90;12.40;;;;;;;15.52;71.96;98608.23;233864;1200;138895;-62
2021/08/30 18:58:40;;;;;;;18.10;13.30;;;;;;;15.48;72.00;98599.61;233828;1200;139339;-62
2021/08/30 19:03:43;;;;;;;18.90;13.80;;;;;;;15.50;72.31;98599.42;233658;1201;139245;-61
2021/08/30 19:08:46;;;;;;;18.80;14.00;;;;;;;15.49;72.31;98593.45;233681;1202;139237;-62
2021/08/30 19:13:49;;;;;;;19.00;14.20;;;;;;;15.46;72.32;98595.28;233615;1202;138775;-63
2021/08/30 19:18:52;;;;;;;277.60;180.40;;;;;;;15.45;72.33;98590.93;233523;1202;139189;-62
2021/08/30 19:23:56;;;;;;;19.20;13.70;;;;;;;15.42;72.47;98587.48;233209;1202;140495;-62
2021/08/30 19:28:59;;;;;;;18.70;14.20;;;;;;;15.43;72.67;98587.71;233951;1200;140046;-63
2021/08/30 19:34:02;;;;;;;20.30;15.70;;;;;;;15.46;72.76;98585.19;233882;1201;139803;-62
2021/08/30 19:39:05;;;;;;;18.90;14.40;;;;;;;15.44;72.73;98578.34;233752;1201;138761;-62
2021/08/30 19:44:09;;;;;;;18.40;14.00;;;;;;;15.45;72.60;98577.56;233680;1202;139389;-63
2021/08/30 19:49:12;;;;;;;17.60;14.60;;;;;;;15.45;72.63;98577.73;233653;1202;139244;-63
2021/08/30 19:54:15;;;;;;;20.90;15.30;;;;;;;15.46;72.65;98573.36;233788;1201;139274;-63
2021/08/30 19:59:21;;;;;;;20.50;16.50;;;;;;;15.42;72.58;98569.92;233733;1201;138570;-63
2021/08/30 20:04:24;;;;;;;18.70;14.20;;;;;;;15.36;72.64;98568.50;233697;1200;138918;-63
2021/08/30 20:09:26;;;;;;;17.00;13.60;;;;;;;15.30;72.63;98566.50;233693;1201;140280;-63
2021/08/30 20:14:29;;;;;;;18.70;13.70;;;;;;;15.34;72.90;98563.30;233695;1201;139399;-63
2021/08/30 20:19:32;;;;;;;20.00;14.20;;;;;;;15.36;72.97;98556.71;233793;1201;138682;-63
2021/08/30 20:24:35;;;;;;;17.10;14.00;;;;;;;15.33;72.81;98551.65;233479;1201;138592;-63
2021/08/30 20:29:39;;;;;;;18.90;14.60;;;;;;;15.33;73.21;98543.85;233330;1202;139409;-64
2021/08/30 20:34:45;;;;;;;19.90;15.40;;;;;;;15.35;73.00;98548.38;233912;1201;139280;-64
2021/08/30 20:39:48;;;;;;;22.10;16.50;;;;;;;15.34;73.08;98546.88;233366;1201;139026;-64
2021/08/30 20:44:53;;;;;;;19.40;14.00;;;;;;;15.32;73.13;98548.85;233667;1201;138297;-64
2021/08/30 20:49:58;;;;;;;19.70;14.20;;;;;;;15.30;73.14;98546.15;233702;1201;140178;-64
2021/08/30 20:55:02;;;;;;;20.30;15.50;;;;;;;15.31;73.04;98544.83;233834;1201;139404;-65
2021/08/30 21:00:06;;;;;;;20.10;15.40;;;;;;;15.30;73.07;98543.95;233471;1201;138692;-63
2021/08/30 21:05:09;;;;;;;21.30;14.80;;;;;;;15.28;73.01;98542.94;233370;1203;139146;-63
2021/08/30 21:10:14;;;;;;;17.70;14.00;;;;;;;15.24;73.03;98542.20;233537;1201;139991;-63
2021/08/30 21:15:17;;;;;;;21.10;15.20;;;;;;;15.23;73.15;98544.79;233298;1201;139817;-64
2021/08/30 21:20:20;;;;;;;20.20;16.20;;;;;;;15.18;73.08;98540.42;233858;1201;138137;-62
2021/08/30 21:25:23;;;;;;;19.70;14.80;;;;;;;15.14;73.27;98542.98;233851;1200;138825;-62
2021/08/30 21:30:26;;;;;;;20.30;14.70;;;;;;;15.11;73.23;98537.66;233754;1201;139934;-63
2021/08/30 21:35:30;;;;;;;17.90;14.30;;;;;;;15.13;73.16;98538.73;233768;1202;138982;-62
2021/08/30 21:40:32;;;;;;;18.90;15.60;;;;;;;15.12;73.17;98538.08;233858;1201;138565;-61
2021/08/30 21:45:36;;;;;;;18.60;14.00;;;;;;;15.13;73.23;98534.43;233851;1201;139472;-64
2021/08/30 21:50:39;;;;;;;19.60;14.80;;;;;;;15.15;73.25;98530.85;233436;1200;139823;-65
2021/08/30 21:55:42;;;;;;;19.60;14.10;;;;;;;15.18;73.32;98526.30;233690;1201;139029;-63
2021/08/30 22:00:45;;;;;;;19.80;14.80;;;;;;;15.21;73.22;98522.33;233838;1201;139003;-62
2021/08/30 22:05:49;;;;;;;70.30;43.80;;;;;;;15.21;73.07;98519.27;232387;1201;139136;-62
2021/08/30 22:10:53;;;;;;;17.90;13.00;;;;;;;15.22;73.08;98516.48;231788;1201;139394;-63
2021/08/30 22:15:57;;;;;;;16.30;13.30;;;;;;;15.21;73.14;98507.98;232931;1201;139387;-64
2021/08/30 22:21:01;;;;;;;20.60;14.10;;;;;;;15.22;73.13;98502.95;231998;1201;139696;-62
2021/08/30 22:26:04;;;;;;;16.40;13.70;;;;;;;15.21;72.92;98497.13;231806;1201;138249;-64
2021/08/30 22:31:08;;;;;;;19.10;13.70;;;;;;;15.15;72.86;98495.70;231928;1202;138256;-61
2021/08/30 22:36:12;;;;;;;16.00;11.30;;;;;;;15.07;72.90;98484.94;233415;1201;139294;-61
2021/08/30 22:41:16;;;;;;;18.20;10.70;;;;;;;15.04;72.70;98485.09;232860;1201;139336;-61
2021/08/30 22:46:20;;;;;;;14.00;11.70;;;;;;;15.02;72.70;98484.13;232797;1201;139752;-62
2021/08/30 22:51:24;;;;;;;12.50;10.90;;;;;;;15.02;72.90;98478.26;233197;1201;138857;-62
2021/08/30 22:56:28;;;;;;;10.90;9.40;;;;;;;15.00;72.73;98479.52;232853;1201;138898;-63
2021/08/30 23:01:32;;;;;;;11.80;8.40;;;;;;;14.99;72.67;98477.66;233135;1201;138926;-63
2021/08/30 23:06:41;;;;;;;12.00;9.60;;;;;;;15.01;72.59;98473.34;233804;1201;138974;-63
2021/08/30 23:11:44;;;;;;;13.60;10.00;;;;;;;15.04;72.50;98474.38;233908;1201;235141;-63
2021/08/30 23:16:47;;;;;;;13.00;10.20;;;;;;;15.04;72.52;98471.65;234033;1201;139673;-63